sensor_id;sensor_type;location;lat;lon;timestamp;temperature;humidity
54796;DHT22;40693;43.884;20.340;2022-08-19T00:00:13;665.70;2432.00
54796;DHT22;40693;43.884;20.340;2022-08-19T00:02:40;665.70;2432.00
54796;DHT22;40693;43.884;20.340;2022-08-19T00:05:07;665.70;2406.40
54796;DHT22;40693;43.884;20.340;2022-08-19T00:07:33;665.70;2406.40
54796;DHT22;40693;43.884;20.340;2022-08-19T00:09:59;665.60;2432.00
54796;DHT22;40693;43.884;20.340;2022-08-19T00:12:26;665.60;2406.40
54796;DHT22;40693;43.884;20.340;2022-08-19T00:14:51;665.60;2380.80
54796;DHT22;40693;43.884;20.340;2022-08-19T00:17:19;665.60;2406.40
54796;DHT22;40693;43.884;20.340;2022-08-19T00:19:45;665.60;2406.40
54796;DHT22;40693;43.884;20.340;2022-08-19T00:22:11;665.60;2406.40
54796;DHT22;40693;43.884;20.340;2022-08-19T00:24:38;665.60;2406.40
54796;DHT22;40693;43.884;20.340;2022-08-19T00:27:04;640.90;2406.40
54796;DHT22;40693;43.884;20.340;2022-08-19T00:29:30;640.90;2406.40
54796;DHT22;40693;43.884;20.340;2022-08-19T00:31:58;640.90;2432.00
54796;DHT22;40693;43.884;20.340;2022-08-19T00:34:26;665.60;2432.00
54796;DHT22;40693;43.884;20.340;2022-08-19T00:36:57;640.90;2432.00
54796;DHT22;40693;43.884;20.340;2022-08-19T00:39:23;640.90;2432.00
54796;DHT22;40693;43.884;20.340;2022-08-19T00:41:51;640.90;2432.00
54796;DHT22;40693;43.884;20.340;2022-08-19T00:44:28;640.80;2432.00
54796;DHT22;40693;43.884;20.340;2022-08-19T00:46:57;640.80;2432.00
54796;DHT22;40693;43.884;20.340;2022-08-19T00:49:41;640.70;2432.00
54796;DHT22;40693;43.884;20.340;2022-08-19T00:52:19;640.70;2432.00
54796;DHT22;40693;43.884;20.340;2022-08-19T00:54:46;640.70;2432.00
54796;DHT22;40693;43.884;20.340;2022-08-19T00:57:26;640.70;2432.00
54796;DHT22;40693;43.884;20.340;2022-08-19T00:59:54;640.70;2432.00
54796;DHT22;40693;43.884;20.340;2022-08-19T01:02:21;640.70;2432.00
54796;DHT22;40693;43.884;20.340;2022-08-19T01:04:47;640.70;2432.00
54796;DHT22;40693;43.884;20.340;2022-08-19T01:07:13;640.70;2432.00
54796;DHT22;40693;43.884;20.340;2022-08-19T01:09:39;640.70;2432.00
54796;DHT22;40693;43.884;20.340;2022-08-19T01:12:05;640.70;2432.00
54796;DHT22;40693;43.884;20.340;2022-08-19T01:14:31;640.70;2432.00
54796;DHT22;40693;43.884;20.340;2022-08-19T01:16:57;640.70;2432.00
54796;DHT22;40693;43.884;20.340;2022-08-19T01:19:37;640.70;2432.00
54796;DHT22;40693;43.884;20.340;2022-08-19T01:24:49;640.60;2432.00
54796;DHT22;40693;43.884;20.340;2022-08-19T01:27:15;640.60;2432.00
54796;DHT22;40693;43.884;20.340;2022-08-19T01:29:43;640.60;2432.00
54796;DHT22;40693;43.884;20.340;2022-08-19T01:32:13;640.60;2432.00
54796;DHT22;40693;43.884;20.340;2022-08-19T01:34:40;640.60;2432.00
54796;DHT22;40693;43.884;20.340;2022-08-19T01:37:10;640.70;2432.00
54796;DHT22;40693;43.884;20.340;2022-08-19T01:39:38;640.50;2432.00
54796;DHT22;40693;43.884;20.340;2022-08-19T01:42:05;640.50;2432.00
54796;DHT22;40693;43.884;20.340;2022-08-19T01:45:01;640.50;2432.00
54796;DHT22;40693;43.884;20.340;2022-08-19T01:47:27;640.40;2432.00
54796;DHT22;40693;43.884;20.340;2022-08-19T01:49:53;640.40;2432.00
54796;DHT22;40693;43.884;20.340;2022-08-19T01:52:18;640.40;2432.00
54796;DHT22;40693;43.884;20.340;2022-08-19T01:54:44;640.40;2432.00
54796;DHT22;40693;43.884;20.340;2022-08-19T01:57:25;640.30;2432.00
54796;DHT22;40693;43.884;20.340;2022-08-19T01:59:51;640.30;2432.00
54796;DHT22;40693;43.884;20.340;2022-08-19T02:02:17;640.30;2432.00
54796;DHT22;40693;43.884;20.340;2022-08-19T02:04:43;640.20;2432.00
54796;DHT22;40693;43.884;20.340;2022-08-19T02:07:12;640.20;2432.00
54796;DHT22;40693;43.884;20.340;2022-08-19T02:09:50;640.20;2432.00
54796;DHT22;40693;43.884;20.340;2022-08-19T02:12:16;640.10;2432.00
54796;DHT22;40693;43.884;20.340;2022-08-19T02:14:45;640.10;2432.00
54796;DHT22;40693;43.884;20.340;2022-08-19T02:17:26;640.10;2432.00
54796;DHT22;40693;43.884;20.340;2022-08-19T02:19:53;640.10;2432.00
54796;DHT22;40693;43.884;20.340;2022-08-19T02:22:19;640.10;2432.00
54796;DHT22;40693;43.884;20.340;2022-08-19T02:24:54;640.00;2432.00
54796;DHT22;40693;43.884;20.340;2022-08-19T02:27:23;615.30;2432.00
54796;DHT22;40693;43.884;20.340;2022-08-19T02:29:50;640.00;2432.00
54796;DHT22;40693;43.884;20.340;2022-08-19T02:32:32;615.30;2432.00
54796;DHT22;40693;43.884;20.340;2022-08-19T02:35:05;615.20;2432.00
54796;DHT22;40693;43.884;20.340;2022-08-19T02:37:44;640.60;2432.00
54796;DHT22;40693;43.884;20.340;2022-08-19T02:40:32;614.80;2432.00
54796;DHT22;40693;43.884;20.340;2022-08-19T02:43:05;614.70;2432.00
54796;DHT22;40693;43.884;20.340;2022-08-19T02:45:37;614.70;2432.00
54796;DHT22;40693;43.884;20.340;2022-08-19T02:48:04;614.70;2432.00
54796;DHT22;40693;43.884;20.340;2022-08-19T02:50:39;614.70;2432.00
54796;DHT22;40693;43.884;20.340;2022-08-19T02:53:05;614.70;2432.00
54796;DHT22;40693;43.884;20.340;2022-08-19T02:55:32;614.80;2432.00
54796;DHT22;40693;43.884;20.340;2022-08-19T02:57:58;614.80;2432.00
54796;DHT22;40693;43.884;20.340;2022-08-19T03:00:25;614.80;2432.00
54796;DHT22;40693;43.884;20.340;2022-08-19T03:02:57;614.90;2432.00
54796;DHT22;40693;43.884;20.340;2022-08-19T03:05:36;614.80;2432.00
54796;DHT22;40693;43.884;20.340;2022-08-19T03:08:01;614.80;2432.00
54796;DHT22;40693;43.884;20.340;2022-08-19T03:10:28;614.90;2432.00
54796;DHT22;40693;43.884;20.340;2022-08-19T03:12:54;614.80;2432.00
54796;DHT22;40693;43.884;20.340;2022-08-19T03:15:20;614.80;2432.00
54796;DHT22;40693;43.884;20.340;2022-08-19T03:17:55;614.80;2432.00
54796;DHT22;40693;43.884;20.340;2022-08-19T03:20:20;614.80;2432.00
54796;DHT22;40693;43.884;20.340;2022-08-19T03:22:56;614.80;2432.00
54796;DHT22;40693;43.884;20.340;2022-08-19T03:25:21;614.80;2432.00
54796;DHT22;40693;43.884;20.340;2022-08-19T03:27:59;614.80;2432.00
54796;DHT22;40693;43.884;20.340;2022-08-19T03:30:34;614.80;2432.00
54796;DHT22;40693;43.884;20.340;2022-08-19T03:33:03;614.70;2432.00
54796;DHT22;40693;43.884;20.340;2022-08-19T03:35:35;614.70;2432.00
54796;DHT22;40693;43.884;20.340;2022-08-19T03:38:05;614.60;2432.00
54796;DHT22;40693;43.884;20.340;2022-08-19T03:40:44;614.60;2432.00
54796;DHT22;40693;43.884;20.340;2022-08-19T03:43:13;614.60;2432.00
54796;DHT22;40693;43.884;20.340;2022-08-19T03:46:03;614.60;2432.00
54796;DHT22;40693;43.884;20.340;2022-08-19T03:48:30;614.60;2432.00
54796;DHT22;40693;43.884;20.340;2022-08-19T03:50:57;614.80;2432.00
54796;DHT22;40693;43.884;20.340;2022-08-19T03:53:25;614.50;2432.00
54796;DHT22;40693;43.884;20.340;2022-08-19T03:55:51;614.50;2432.00
54796;DHT22;40693;43.884;20.340;2022-08-19T03:58:19;614.50;2432.00
54796;DHT22;40693;43.884;20.340;2022-08-19T04:00:45;614.40;2432.00
54796;DHT22;40693;43.884;20.340;2022-08-19T04:03:10;614.50;2432.00
54796;DHT22;40693;43.884;20.340;2022-08-19T04:05:36;614.50;2432.00
54796;DHT22;40693;43.884;20.340;2022-08-19T04:08:04;614.50;2432.00
54796;DHT22;40693;43.884;20.340;2022-08-19T04:10:35;614.40;2432.00
54796;DHT22;40693;43.884;20.340;2022-08-19T04:13:01;614.40;2432.00
54796;DHT22;40693;43.884;20.340;2022-08-19T04:16:02;589.70;2432.00
54796;DHT22;40693;43.884;20.340;2022-08-19T04:18:29;614.50;2432.00
54796;DHT22;40693;43.884;20.340;2022-08-19T04:20:55;614.50;2432.00
54796;DHT22;40693;43.884;20.340;2022-08-19T04:23:23;614.50;2432.00
54796;DHT22;40693;43.884;20.340;2022-08-19T04:25:50;614.50;2432.00
54796;DHT22;40693;43.884;20.340;2022-08-19T04:28:16;614.50;2432.00
54796;DHT22;40693;43.884;20.340;2022-08-19T04:30:45;614.50;2432.00
54796;DHT22;40693;43.884;20.340;2022-08-19T04:33:16;614.50;2432.00
54796;DHT22;40693;43.884;20.340;2022-08-19T04:35:44;614.50;2432.00
54796;DHT22;40693;43.884;20.340;2022-08-19T04:38:11;614.50;2432.00
54796;DHT22;40693;43.884;20.340;2022-08-19T04:40:42;614.50;2432.00
54796;DHT22;40693;43.884;20.340;2022-08-19T04:43:26;614.50;2432.00
54796;DHT22;40693;43.884;20.340;2022-08-19T04:45:52;614.50;2432.00
54796;DHT22;40693;43.884;20.340;2022-08-19T04:48:19;614.50;2432.00
54796;DHT22;40693;43.884;20.340;2022-08-19T04:50:57;614.50;2432.00
54796;DHT22;40693;43.884;20.340;2022-08-19T04:53:26;614.50;2432.00
54796;DHT22;40693;43.884;20.340;2022-08-19T04:56:03;614.50;2432.00
54796;DHT22;40693;43.884;20.340;2022-08-19T04:58:29;614.50;2432.00
54796;DHT22;40693;43.884;20.340;2022-08-19T05:00:55;614.50;2432.00
54796;DHT22;40693;43.884;20.340;2022-08-19T05:03:21;614.60;2432.00
54796;DHT22;40693;43.884;20.340;2022-08-19T05:05:48;614.60;2432.00
54796;DHT22;40693;43.884;20.340;2022-08-19T05:08:19;614.70;2432.00
54796;DHT22;40693;43.884;20.340;2022-08-19T05:10:48;614.80;2432.00
54796;DHT22;40693;43.884;20.340;2022-08-19T05:13:14;614.80;2432.00
54796;DHT22;40693;43.884;20.340;2022-08-19T05:15:42;615.00;2432.00
54796;DHT22;40693;43.884;20.340;2022-08-19T05:18:09;615.00;2432.00
54796;DHT22;40693;43.884;20.340;2022-08-19T05:21:13;615.00;2432.00
54796;DHT22;40693;43.884;20.340;2022-08-19T05:24:06;615.10;2432.00
54796;DHT22;40693;43.884;20.340;2022-08-19T05:26:52;615.10;2432.00
54796;DHT22;40693;43.884;20.340;2022-08-19T05:29:23;615.20;2432.00
54796;DHT22;40693;43.884;20.340;2022-08-19T05:32:04;615.20;2432.00
54796;DHT22;40693;43.884;20.340;2022-08-19T05:37:58;615.30;2432.00
54796;DHT22;40693;43.884;20.340;2022-08-19T05:40:23;615.30;2432.00
54796;DHT22;40693;43.884;20.340;2022-08-19T05:42:49;640.00;2432.00
54796;DHT22;40693;43.884;20.340;2022-08-19T05:45:15;640.00;2432.00
54796;DHT22;40693;43.884;20.340;2022-08-19T05:47:40;640.00;2432.00
54796;DHT22;40693;43.884;20.340;2022-08-19T05:50:07;640.10;2432.00
54796;DHT22;40693;43.884;20.340;2022-08-19T05:52:32;640.20;2432.00
54796;DHT22;40693;43.884;20.340;2022-08-19T05:54:58;640.20;2432.00
54796;DHT22;40693;43.884;20.340;2022-08-19T05:57:24;640.30;2432.00
54796;DHT22;40693;43.884;20.340;2022-08-19T05:59:50;640.30;2432.00
54796;DHT22;40693;43.884;20.340;2022-08-19T06:02:17;640.30;2432.00
54796;DHT22;40693;43.884;20.340;2022-08-19T06:04:42;640.40;2432.00
54796;DHT22;40693;43.884;20.340;2022-08-19T06:07:09;640.40;2432.00
54796;DHT22;40693;43.884;20.340;2022-08-19T06:09:35;640.50;2432.00
54796;DHT22;40693;43.884;20.340;2022-08-19T06:12:02;640.50;2432.00
54796;DHT22;40693;43.884;20.340;2022-08-19T06:14:33;640.50;2432.00
54796;DHT22;40693;43.884;20.340;2022-08-19T06:17:00;640.60;2432.00
54796;DHT22;40693;43.884;20.340;2022-08-19T06:19:29;640.60;2432.00
54796;DHT22;40693;43.884;20.340;2022-08-19T06:21:59;640.70;2432.00
54796;DHT22;40693;43.884;20.340;2022-08-19T06:24:27;640.70;2432.00
54796;DHT22;40693;43.884;20.340;2022-08-19T06:26:54;640.70;2432.00
54796;DHT22;40693;43.884;20.340;2022-08-19T06:29:24;640.80;2432.00
54796;DHT22;40693;43.884;20.340;2022-08-19T06:31:53;640.90;2432.00
54796;DHT22;40693;43.884;20.340;2022-08-19T06:34:20;665.60;2432.00
54796;DHT22;40693;43.884;20.340;2022-08-19T06:36:49;665.70;2432.00
54796;DHT22;40693;43.884;20.340;2022-08-19T06:39:17;665.80;2432.00
54796;DHT22;40693;43.884;20.340;2022-08-19T06:41:46;665.90;2432.00
54796;DHT22;40693;43.884;20.340;2022-08-19T06:44:12;666.00;2432.00
54796;DHT22;40693;43.884;20.340;2022-08-19T06:46:39;666.10;2432.00
54796;DHT22;40693;43.884;20.340;2022-08-19T06:49:06;666.10;2432.00
54796;DHT22;40693;43.884;20.340;2022-08-19T06:51:46;666.20;2432.00
54796;DHT22;40693;43.884;20.340;2022-08-19T06:54:16;666.30;2432.00
54796;DHT22;40693;43.884;20.340;2022-08-19T06:56:42;666.40;2432.00
54796;DHT22;40693;43.884;20.340;2022-08-19T06:59:11;666.50;2432.00
54796;DHT22;40693;43.884;20.340;2022-08-19T07:01:40;666.50;2432.00
54796;DHT22;40693;43.884;20.340;2022-08-19T07:04:07;691.30;2432.00
54796;DHT22;40693;43.884;20.340;2022-08-19T07:06:35;691.30;2432.00
54796;DHT22;40693;43.884;20.340;2022-08-19T07:09:01;691.40;2432.00
54796;DHT22;40693;43.884;20.340;2022-08-19T07:11:27;691.60;2432.00
54796;DHT22;40693;43.884;20.340;2022-08-19T07:13:53;691.70;2432.00
54796;DHT22;40693;43.884;20.340;2022-08-19T07:16:19;691.70;2432.00
54796;DHT22;40693;43.884;20.340;2022-08-19T07:18:50;691.80;2432.00
54796;DHT22;40693;43.884;20.340;2022-08-19T07:21:21;691.90;2432.00
54796;DHT22;40693;43.884;20.340;2022-08-19T07:23:50;692.00;2432.00
54796;DHT22;40693;43.884;20.340;2022-08-19T07:26:21;692.10;2432.00
54796;DHT22;40693;43.884;20.340;2022-08-19T07:28:48;716.80;2432.00
54796;DHT22;40693;43.884;20.340;2022-08-19T07:31:17;716.90;2432.00
54796;DHT22;40693;43.884;20.340;2022-08-19T07:33:44;717.10;2432.00
54796;DHT22;40693;43.884;20.340;2022-08-19T07:36:12;717.20;2432.00
54796;DHT22;40693;43.884;20.340;2022-08-19T07:38:41;717.30;2432.00
54796;DHT22;40693;43.884;20.340;2022-08-19T07:41:10;717.40;2432.00
54796;DHT22;40693;43.884;20.340;2022-08-19T07:43:38;717.60;2406.40
54796;DHT22;40693;43.884;20.340;2022-08-19T07:46:04;717.70;2355.20
54796;DHT22;40693;43.884;20.340;2022-08-19T07:48:32;717.70;2355.20
54796;DHT22;40693;43.884;20.340;2022-08-19T07:51:02;742.50;2432.00
54796;DHT22;40693;43.884;20.340;2022-08-19T07:53:29;742.60;2355.20
54796;DHT22;40693;43.884;20.340;2022-08-19T07:55:56;742.70;2329.60
54796;DHT22;40693;43.884;20.340;2022-08-19T07:58:56;742.80;2355.20
54796;DHT22;40693;43.884;20.340;2022-08-19T08:01:38;742.90;2380.80
54796;DHT22;40693;43.884;20.340;2022-08-19T08:04:06;743.00;2278.40
54796;DHT22;40693;43.884;20.340;2022-08-19T08:07:04;743.10;2252.80
54796;DHT22;40693;43.884;20.340;2022-08-19T08:09:48;743.10;2227.20
54796;DHT22;40693;43.884;20.340;2022-08-19T08:12:17;743.10;2227.20
54796;DHT22;40693;43.884;20.340;2022-08-19T08:14:46;743.20;2227.20
54796;DHT22;40693;43.884;20.340;2022-08-19T08:17:14;743.30;2227.20
54796;DHT22;40693;43.884;20.340;2022-08-19T08:19:41;768.10;2304.00
54796;DHT22;40693;43.884;20.340;2022-08-19T08:22:08;768.20;2278.40
54796;DHT22;40693;43.884;20.340;2022-08-19T08:24:54;768.20;2227.20
54796;DHT22;40693;43.884;20.340;2022-08-19T08:27:24;768.40;2201.60
54796;DHT22;40693;43.884;20.340;2022-08-19T08:30:37;768.50;2227.20
54796;DHT22;40693;43.884;20.340;2022-08-19T08:33:21;768.60;2252.80
54796;DHT22;40693;43.884;20.340;2022-08-19T08:35:56;768.80;2227.20
54796;DHT22;40693;43.884;20.340;2022-08-19T08:38:46;768.90;2201.60
54796;DHT22;40693;43.884;20.340;2022-08-19T08:43:50;793.70;2176.00
54796;DHT22;40693;43.884;20.340;2022-08-19T08:46:26;793.70;2201.60
54796;DHT22;40693;43.884;20.340;2022-08-19T08:49:01;793.90;2176.00
54796;DHT22;40693;43.884;20.340;2022-08-19T08:51:48;794.00;2099.20
54796;DHT22;40693;43.884;20.340;2022-08-19T08:54:20;794.20;2124.80
54796;DHT22;40693;43.884;20.340;2022-08-19T08:56:49;794.20;2048.00
54796;DHT22;40693;43.884;20.340;2022-08-19T08:59:39;794.40;2073.60
54796;DHT22;40693;43.884;20.340;2022-08-19T09:02:07;794.50;2022.40
54796;DHT22;40693;43.884;20.340;2022-08-19T09:04:34;819.30;2022.40
54796;DHT22;40693;43.884;20.340;2022-08-19T09:08:07;819.30;1894.40
54796;DHT22;40693;43.884;20.340;2022-08-19T09:10:38;819.50;1894.40
54796;DHT22;40693;43.884;20.340;2022-08-19T09:15:56;819.30;1894.40
54796;DHT22;40693;43.884;20.340;2022-08-19T09:18:41;819.50;1894.40
54796;DHT22;40693;43.884;20.340;2022-08-19T09:21:14;819.60;1868.80
54796;DHT22;40693;43.884;20.340;2022-08-19T09:23:41;819.60;1868.80
54796;DHT22;40693;43.884;20.340;2022-08-19T09:26:14;819.60;1817.60
54796;DHT22;40693;43.884;20.340;2022-08-19T09:29:15;819.60;1868.80
54796;DHT22;40693;43.884;20.340;2022-08-19T09:31:44;819.80;1843.20
54796;DHT22;40693;43.884;20.340;2022-08-19T09:34:28;820.00;1817.60
54796;DHT22;40693;43.884;20.340;2022-08-19T09:37:39;820.10;1843.20
54796;DHT22;40693;43.884;20.340;2022-08-19T09:40:07;844.90;1817.60
54796;DHT22;40693;43.884;20.340;2022-08-19T09:42:33;845.20;1843.20
54796;DHT22;40693;43.884;20.340;2022-08-19T09:44:59;845.20;1817.60
54796;DHT22;40693;43.884;20.340;2022-08-19T09:50:45;845.40;1868.80
54796;DHT22;40693;43.884;20.340;2022-08-19T09:53:11;845.70;1792.00
54796;DHT22;40693;43.884;20.340;2022-08-19T09:55:42;845.70;1817.60
54796;DHT22;40693;43.884;20.340;2022-08-19T09:58:09;870.40;1817.60
54796;DHT22;40693;43.884;20.340;2022-08-19T10:00:38;870.50;1792.00
54796;DHT22;40693;43.884;20.340;2022-08-19T10:03:05;870.60;1792.00
54796;DHT22;40693;43.884;20.340;2022-08-19T10:10:44;870.80;1843.20
54796;DHT22;40693;43.884;20.340;2022-08-19T10:13:28;871.00;1817.60
54796;DHT22;40693;43.884;20.340;2022-08-19T10:16:02;871.20;1817.60
54796;DHT22;40693;43.884;20.340;2022-08-19T10:18:32;896.00;1894.40
54796;DHT22;40693;43.884;20.340;2022-08-19T10:21:14;896.20;1766.40
54796;DHT22;40693;43.884;20.340;2022-08-19T10:23:55;896.20;1766.40
54796;DHT22;40693;43.884;20.340;2022-08-19T10:26:36;896.30;1766.40
54796;DHT22;40693;43.884;20.340;2022-08-19T10:29:03;896.40;1740.80
54796;DHT22;40693;43.884;20.340;2022-08-19T10:31:51;896.40;1740.80
54796;DHT22;40693;43.884;20.340;2022-08-19T10:34:20;896.40;1740.80
54796;DHT22;40693;43.884;20.340;2022-08-19T10:36:53;896.70;1740.80
54796;DHT22;40693;43.884;20.340;2022-08-19T10:39:18;896.80;1715.20
54796;DHT22;40693;43.884;20.340;2022-08-19T10:41:56;921.60;1715.20
54796;DHT22;40693;43.884;20.340;2022-08-19T10:44:23;921.70;1689.60
54796;DHT22;40693;43.884;20.340;2022-08-19T10:46:55;896.90;1612.80
54796;DHT22;40693;43.884;20.340;2022-08-19T10:49:21;921.90;1664.00
54796;DHT22;40693;43.884;20.340;2022-08-19T10:52:08;921.90;1612.80
54796;DHT22;40693;43.884;20.340;2022-08-19T10:55:07;922.10;1612.80
54796;DHT22;40693;43.884;20.340;2022-08-19T10:58:03;922.00;1587.20
54796;DHT22;40693;43.884;20.340;2022-08-19T11:00:57;922.10;1612.80
54796;DHT22;40693;43.884;20.340;2022-08-19T11:03:56;922.30;1587.20
54796;DHT22;40693;43.884;20.340;2022-08-19T11:06:46;922.40;1536.00
54796;DHT22;40693;43.884;20.340;2022-08-19T11:10:00;922.50;1536.00
54796;DHT22;40693;43.884;20.340;2022-08-19T11:12:51;922.50;1561.60
54796;DHT22;40693;43.884;20.340;2022-08-19T11:22:00;947.40;1510.40
54796;DHT22;40693;43.884;20.340;2022-08-19T11:24:42;947.60;1536.00
54796;DHT22;40693;43.884;20.340;2022-08-19T11:27:23;947.70;1510.40
54796;DHT22;40693;43.884;20.340;2022-08-19T11:29:49;947.70;1484.80
54796;DHT22;40693;43.884;20.340;2022-08-19T11:32:18;947.90;1536.00
54796;DHT22;40693;43.884;20.340;2022-08-19T11:34:43;947.30;1459.20
54796;DHT22;40693;43.884;20.340;2022-08-19T11:37:09;972.80;1484.80
54796;DHT22;40693;43.884;20.340;2022-08-19T11:39:41;973.00;1510.40
54796;DHT22;40693;43.884;20.340;2022-08-19T11:42:07;973.20;1459.20
54796;DHT22;40693;43.884;20.340;2022-08-19T11:44:52;973.40;1459.20
54796;DHT22;40693;43.884;20.340;2022-08-19T11:47:18;973.30;1408.00
54796;DHT22;40693;43.884;20.340;2022-08-19T11:49:46;973.20;1408.00
54796;DHT22;40693;43.884;20.340;2022-08-19T11:52:12;973.50;1382.40
54796;DHT22;40693;43.884;20.340;2022-08-19T11:54:56;973.50;1356.80
54796;DHT22;40693;43.884;20.340;2022-08-19T12:00:45;973.50;1331.20
54796;DHT22;40693;43.884;20.340;2022-08-19T12:03:17;973.50;1331.20
54796;DHT22;40693;43.884;20.340;2022-08-19T12:09:19;973.70;1305.60
54796;DHT22;40693;43.884;20.340;2022-08-19T12:11:45;973.70;1305.60
54796;DHT22;40693;43.884;20.340;2022-08-19T12:14:12;973.70;1305.60
54796;DHT22;40693;43.884;20.340;2022-08-19T12:16:39;998.40;1356.80
54796;DHT22;40693;43.884;20.340;2022-08-19T12:19:06;998.50;1382.40
54796;DHT22;40693;43.884;20.340;2022-08-19T12:21:34;998.60;1356.80
54796;DHT22;40693;43.884;20.340;2022-08-19T12:24:02;998.80;1356.80
54796;DHT22;40693;43.884;20.340;2022-08-19T12:26:29;998.80;1305.60
54796;DHT22;40693;43.884;20.340;2022-08-19T12:28:57;998.80;1305.60
54796;DHT22;40693;43.884;20.340;2022-08-19T12:31:26;999.00;1305.60
54796;DHT22;40693;43.884;20.340;2022-08-19T12:33:51;999.00;1305.60
54796;DHT22;40693;43.884;20.340;2022-08-19T12:36:17;998.90;1305.60
54796;DHT22;40693;43.884;20.340;2022-08-19T12:38:43;999.30;1254.40
54796;DHT22;40693;43.884;20.340;2022-08-19T12:41:11;999.30;1280.00
54796;DHT22;40693;43.884;20.340;2022-08-19T12:43:37;999.30;1228.80
54796;DHT22;40693;43.884;20.340;2022-08-19T12:46:05;1024.00;1228.80
54796;DHT22;40693;43.884;20.340;2022-08-19T12:48:32;1024.10;1254.40
54796;DHT22;40693;43.884;20.340;2022-08-19T12:50:58;1024.30;1254.40
54796;DHT22;40693;43.884;20.340;2022-08-19T12:53:24;1024.10;1228.80
54796;DHT22;40693;43.884;20.340;2022-08-19T12:55:58;1024.30;1254.40
54796;DHT22;40693;43.884;20.340;2022-08-19T12:58:26;1024.30;1203.20
54796;DHT22;40693;43.884;20.340;2022-08-19T13:00:52;999.30;1228.80
54796;DHT22;40693;43.884;20.340;2022-08-19T13:03:21;999.10;1228.80
54796;DHT22;40693;43.884;20.340;2022-08-19T13:05:55;998.80;1203.20
54796;DHT22;40693;43.884;20.340;2022-08-19T13:08:21;998.50;1177.60
54796;DHT22;40693;43.884;20.340;2022-08-19T13:11:14;998.50;1203.20
54796;DHT22;40693;43.884;20.340;2022-08-19T13:14:07;998.50;1177.60
54796;DHT22;40693;43.884;20.340;2022-08-19T13:16:33;973.70;1177.60
54796;DHT22;40693;43.884;20.340;2022-08-19T13:19:09;973.50;1177.60
54796;DHT22;40693;43.884;20.340;2022-08-19T13:21:36;973.70;1203.20
54796;DHT22;40693;43.884;20.340;2022-08-19T13:24:02;973.60;1203.20
54796;DHT22;40693;43.884;20.340;2022-08-19T13:26:28;973.40;1203.20
54796;DHT22;40693;43.884;20.340;2022-08-19T13:29:03;973.50;1228.80
54796;DHT22;40693;43.884;20.340;2022-08-19T13:31:50;973.50;1228.80
54796;DHT22;40693;43.884;20.340;2022-08-19T13:34:35;973.70;1280.00
54796;DHT22;40693;43.884;20.340;2022-08-19T13:37:04;973.70;1280.00
54796;DHT22;40693;43.884;20.340;2022-08-19T13:39:31;973.70;1254.40
54796;DHT22;40693;43.884;20.340;2022-08-19T13:42:07;998.40;1254.40
54796;DHT22;40693;43.884;20.340;2022-08-19T13:44:40;998.40;1254.40
54796;DHT22;40693;43.884;20.340;2022-08-19T13:47:09;973.70;1177.60
54796;DHT22;40693;43.884;20.340;2022-08-19T13:49:38;973.70;1203.20
54796;DHT22;40693;43.884;20.340;2022-08-19T13:52:16;973.70;1228.80
54796;DHT22;40693;43.884;20.340;2022-08-19T13:54:41;973.50;1254.40
54796;DHT22;40693;43.884;20.340;2022-08-19T13:57:23;973.50;1280.00
54796;DHT22;40693;43.884;20.340;2022-08-19T13:59:52;973.40;1305.60
54796;DHT22;40693;43.884;20.340;2022-08-19T14:02:18;973.40;1331.20
54796;DHT22;40693;43.884;20.340;2022-08-19T14:04:44;973.40;1331.20
54796;DHT22;40693;43.884;20.340;2022-08-19T14:07:10;973.20;1254.40
54796;DHT22;40693;43.884;20.340;2022-08-19T14:09:35;973.10;1254.40
54796;DHT22;40693;43.884;20.340;2022-08-19T14:12:01;972.90;1254.40
54796;DHT22;40693;43.884;20.340;2022-08-19T14:14:27;972.80;1254.40
54796;DHT22;40693;43.884;20.340;2022-08-19T14:16:54;947.90;1254.40
54796;DHT22;40693;43.884;20.340;2022-08-19T14:19:20;947.90;1254.40
54796;DHT22;40693;43.884;20.340;2022-08-19T14:21:46;947.70;1280.00
54796;DHT22;40693;43.884;20.340;2022-08-19T14:24:13;947.60;1280.00
54796;DHT22;40693;43.884;20.340;2022-08-19T14:26:40;947.50;1280.00
54796;DHT22;40693;43.884;20.340;2022-08-19T14:29:05;947.40;1305.60
54796;DHT22;40693;43.884;20.340;2022-08-19T14:31:31;947.30;1305.60
54796;DHT22;40693;43.884;20.340;2022-08-19T14:33:57;947.30;1331.20
54796;DHT22;40693;43.884;20.340;2022-08-19T14:36:24;947.20;1331.20
54796;DHT22;40693;43.884;20.340;2022-08-19T14:38:50;947.20;1331.20
54796;DHT22;40693;43.884;20.340;2022-08-19T14:41:21;947.20;1356.80
54796;DHT22;40693;43.884;20.340;2022-08-19T14:43:48;922.50;1433.60
54796;DHT22;40693;43.884;20.340;2022-08-19T14:46:19;922.50;1433.60
54796;DHT22;40693;43.884;20.340;2022-08-19T14:48:47;922.50;1433.60
54796;DHT22;40693;43.884;20.340;2022-08-19T14:51:13;922.20;1459.20
54796;DHT22;40693;43.884;20.340;2022-08-19T14:53:40;922.00;1459.20
54796;DHT22;40693;43.884;20.340;2022-08-19T14:56:12;921.90;1484.80
54796;DHT22;40693;43.884;20.340;2022-08-19T14:58:41;921.60;1459.20
54796;DHT22;40693;43.884;20.340;2022-08-19T15:01:08;896.90;1459.20
54796;DHT22;40693;43.884;20.340;2022-08-19T15:03:38;896.70;1459.20
54796;DHT22;40693;43.884;20.340;2022-08-19T15:06:05;896.60;1433.60
54796;DHT22;40693;43.884;20.340;2022-08-19T15:08:35;896.40;1408.00
54796;DHT22;40693;43.884;20.340;2022-08-19T15:11:02;896.30;1433.60
54796;DHT22;40693;43.884;20.340;2022-08-19T15:20:20;870.40;1638.40
54796;DHT22;40693;43.884;20.340;2022-08-19T15:22:49;845.40;1664.00
54796;DHT22;40693;43.884;20.340;2022-08-19T15:25:17;845.20;1689.60
54796;DHT22;40693;43.884;20.340;2022-08-19T15:31:41;819.60;1894.40
54796;DHT22;40693;43.884;20.340;2022-08-19T15:34:07;794.00;1920.00
54796;DHT22;40693;43.884;20.340;2022-08-19T15:36:33;743.20;2227.20
54796;DHT22;40693;43.884;20.340;2022-08-19T15:39:01;717.40;2432.00
54796;DHT22;40693;43.884;20.340;2022-08-19T15:41:29;717.00;2432.00
54796;DHT22;40693;43.884;20.340;2022-08-19T15:46:26;692.10;2432.00